Azle, Texas
Current Conditions -  °F | °C
As of 7:52 PM on Saturday 25 Oct 2014 (Local Time) from KNFW Reporting Station
Clear Clear  
Wind Chill: 82°   Ceiling: Unl
Heat Index: 82°   Visibility: 10mi
Dew Point: 58°   Wind: 6mph
Humidity: 44%   Direction: 160°SSE
Pressure: 30.08"   Gusts: NA
Location:  32.88°N, 97.54°W
Report Text: KNFW 260052Z AUTO 16005KT 10SM CLR 28/14 A3008 RMK AO2 SLP170 T02780144 CHINO N VISNO N $
Loading
Personal Weather Stations






























Interactive Weather Map
Tropical Storm Tracking
New forecast layout! Learn more

10-Day Weather Forecast

Advertisements
Track Severe Weather on mobile